59NE weather

CLOSED Nelson Airport
Boelus, Nebraska, United States

Public forecast

Using degrees Fahrenheit for public forecast. Weather courtesy of forecast.io.

Closest aviation weather report (METAR) to Nelson Airport

Closest report is Central Nebraska Regional Airport, 16.0 nm (29.7 km) ESE. Retrieved 2020/07/11 23:53 UTC (37 minutes ago):

KGRI 112353Z 02008KT 10SM CLR 29/17 A3004 RMK AO2 SLP162 T02890167 10306 20283 55006

Closest aviation forecast (TAF) to Nelson Airport

Closest forecast is Central Nebraska Regional Airport, 16.0 nm (29.7 km) ESE. Retrieved 2020-07-12 00:24 UTC (6 minutes ago):

TAF KGRI 112321Z 1200/1224 01009KT P6SM FEW200 FM121100 33005KT P6SM SKC FM121600 06005KT P6SM SKC